Fort Stockton Pecos County Airport
KFST : now visible

Airfield :











YOU CAN JOIN US ON...

 
LOGIN :

Register | Disclaimer

   EN    FR    IT 

 









Legend :    VFR   Marginal VFR   IFR   Intensive IFR   Very Intensive IFR
Visi :
Ceiling :
>= 8 km
>= 3000ft
5 to 8 km
1000 to 3000 ft
1500m to 5 km
500 to 1000 ft
800 to 1500m
200 to 500 ft
< 800m
< 200 ft
Symbols :   Thunderstorms  Fog  Heavy snow  Heavy precipitations  Wind > 20 kt







- Airport Elevation : 3011 ft


KFST - Fort Stockton Pecos County

CURRENT METAR :
  • 212153Z AUTO 14009KT 10SM SCT075 OVC100 26/20 A2997 RMK AO2 RAE14 SLP101 P0000 T02610200

EXPIRED METARs :
  • 212053Z AUTO 15009KT 10SM -RA FEW036 SCT070 OVC095 24/21 A2999 RMK AO2 SLP110 P0000 60000 T02440211 58021
  • 211953Z AUTO 14011KT 10SM -RA OVC085 23/20 A3003 RMK AO2 RAB30 SLP124 P0000 T02330200

TAF KFST
Valid from the 21 at 18:00 until the 22 at 18:00 UTC


211722Z 2118/2218 13011KT P6SM SCT030 BKN100
TEMPO 2122/2202 VRB20G30KT 5SM -TSRA OVC035CB
FM220300 11010KT P6SM BKN050
TEMPO 2203/2207 VRB20G30KT 3SM TSRA BKN030CB
FM220700 20007KT 3SM TSRA BKN030CB
FM221200 18007KT P6SM BKN100
No reported NOTAMs for that airfield.



MET'MAP, your aeronautical weather chart ! - Copyright ORBIFLY December 2007 - Disclaimer

ORBIFLY MET'MAP TEAM :

Programming & Development : Alexandra Zaïnal
Concept & Development : Baudouin d'Aumeries
Co-Development & Prog : Marc-Olivier Méhu
Technical & hardware support : Manuel Goepfert

Contact : metmap@orbifly.com




SOURCES & CREDITS :

   NOAA       Earth
Advisory